Terminal Aerodrome Forecast
Issued by NWS

Home | Current Version | Previous Version | Text Only | Print | Product List | Glossary On
Versions: 1 2 3 4 5 6 7 8 9 10 11 12 13 14 15 16 17 18
843
FTAK31 PAJN 061346 AAA
TAFAGY
TAF AMD
PAGY 061346Z 0614/0712 02010KT P6SM SCT100
     FM062100 02010KT P6SM VCSH BKN100
     FM062300 02006KT 5SM -SN BKN030 OVC060
      AMD LTD TO CLD VIS AND WIND=

USA.gov is the U.S. government's official web portal to all federal, state and local government web resources and services.